sensor_id;sensor_type;location;lat;lon;timestamp;P1;durP1;ratioP1;P2;durP2;ratioP2
35550;SDS011;21655;46.056;13.616;2023-06-26T00:01:45;13.50;;;8.52;;
35550;SDS011;21655;46.056;13.616;2023-06-26T00:04:10;18.38;;;9.35;;
35550;SDS011;21655;46.056;13.616;2023-06-26T00:06:39;12.73;;;9.02;;
35550;SDS011;21655;46.056;13.616;2023-06-26T00:09:05;15.60;;;9.20;;
35550;SDS011;21655;46.056;13.616;2023-06-26T00:11:31;15.65;;;8.98;;
35550;SDS011;21655;46.056;13.616;2023-06-26T00:13:58;12.38;;;8.95;;
35550;SDS011;21655;46.056;13.616;2023-06-26T00:16:25;15.73;;;9.63;;
35550;SDS011;21655;46.056;13.616;2023-06-26T00:18:51;12.50;;;8.57;;
35550;SDS011;21655;46.056;13.616;2023-06-26T00:21:16;14.65;;;8.43;;
35550;SDS011;21655;46.056;13.616;2023-06-26T00:23:42;12.52;;;8.10;;
35550;SDS011;21655;46.056;13.616;2023-06-26T00:26:07;13.50;;;9.13;;
35550;SDS011;21655;46.056;13.616;2023-06-26T00:28:34;17.02;;;10.35;;
35550;SDS011;21655;46.056;13.616;2023-06-26T00:31:00;14.07;;;9.10;;
35550;SDS011;21655;46.056;13.616;2023-06-26T00:33:25;15.13;;;9.45;;
35550;SDS011;21655;46.056;13.616;2023-06-26T00:35:50;12.40;;;9.02;;
35550;SDS011;21655;46.056;13.616;2023-06-26T00:38:16;17.05;;;9.82;;
35550;SDS011;21655;46.056;13.616;2023-06-26T00:40:42;12.57;;;9.10;;
35550;SDS011;21655;46.056;13.616;2023-06-26T00:43:08;15.68;;;10.52;;
35550;SDS011;21655;46.056;13.616;2023-06-26T00:45:34;16.23;;;9.25;;
35550;SDS011;21655;46.056;13.616;2023-06-26T00:48:00;16.58;;;9.23;;
35550;SDS011;21655;46.056;13.616;2023-06-26T00:50:26;15.48;;;10.27;;
35550;SDS011;21655;46.056;13.616;2023-06-26T00:52:52;15.52;;;9.45;;
35550;SDS011;21655;46.056;13.616;2023-06-26T00:55:20;14.65;;;9.77;;
35550;SDS011;21655;46.056;13.616;2023-06-26T00:57:45;14.57;;;9.75;;
35550;SDS011;21655;46.056;13.616;2023-06-26T01:00:11;15.65;;;9.50;;
35550;SDS011;21655;46.056;13.616;2023-06-26T01:02:38;16.00;;;9.00;;
35550;SDS011;21655;46.056;13.616;2023-06-26T01:05:04;16.30;;;9.43;;
35550;SDS011;21655;46.056;13.616;2023-06-26T01:07:32;14.43;;;9.30;;
35550;SDS011;21655;46.056;13.616;2023-06-26T01:10:02;14.07;;;9.65;;
35550;SDS011;21655;46.056;13.616;2023-06-26T01:12:29;16.33;;;10.35;;
35550;SDS011;21655;46.056;13.616;2023-06-26T01:14:56;16.05;;;9.65;;
35550;SDS011;21655;46.056;13.616;2023-06-26T01:17:22;15.93;;;9.93;;
35550;SDS011;21655;46.056;13.616;2023-06-26T01:19:48;18.08;;;10.18;;
35550;SDS011;21655;46.056;13.616;2023-06-26T01:28:13;15.52;;;9.95;;
35550;SDS011;21655;46.056;13.616;2023-06-26T01:30:41;13.10;;;9.35;;
35550;SDS011;21655;46.056;13.616;2023-06-26T01:33:08;14.60;;;9.88;;
35550;SDS011;21655;46.056;13.616;2023-06-26T01:35:34;19.17;;;9.65;;
35550;SDS011;21655;46.056;13.616;2023-06-26T01:38:19;14.07;;;9.50;;
35550;SDS011;21655;46.056;13.616;2023-06-26T01:40:45;16.27;;;9.68;;
35550;SDS011;21655;46.056;13.616;2023-06-26T01:43:24;13.35;;;9.82;;
35550;SDS011;21655;46.056;13.616;2023-06-26T01:46:02;17.48;;;10.20;;
35550;SDS011;21655;46.056;13.616;2023-06-26T01:48:32;16.88;;;9.43;;
35550;SDS011;21655;46.056;13.616;2023-06-26T01:51:04;13.33;;;9.33;;
35550;SDS011;21655;46.056;13.616;2023-06-26T01:53:32;13.93;;;9.65;;
35550;SDS011;21655;46.056;13.616;2023-06-26T01:56:08;13.85;;;8.98;;
35550;SDS011;21655;46.056;13.616;2023-06-26T01:58:40;16.40;;;10.00;;
35550;SDS011;21655;46.056;13.616;2023-06-26T02:01:10;14.40;;;9.88;;
35550;SDS011;21655;46.056;13.616;2023-06-26T02:03:37;16.02;;;9.60;;
35550;SDS011;21655;46.056;13.616;2023-06-26T02:06:02;12.80;;;9.85;;
35550;SDS011;21655;46.056;13.616;2023-06-26T02:08:27;12.00;;;8.50;;
35550;SDS011;21655;46.056;13.616;2023-06-26T02:10:53;14.43;;;9.57;;
35550;SDS011;21655;46.056;13.616;2023-06-26T02:13:18;16.95;;;9.35;;
35550;SDS011;21655;46.056;13.616;2023-06-26T02:15:44;13.73;;;8.80;;
35550;SDS011;21655;46.056;13.616;2023-06-26T02:18:09;18.92;;;9.68;;
35550;SDS011;21655;46.056;13.616;2023-06-26T02:20:35;13.40;;;9.65;;
35550;SDS011;21655;46.056;13.616;2023-06-26T02:23:00;14.98;;;10.25;;
35550;SDS011;21655;46.056;13.616;2023-06-26T02:25:26;16.00;;;10.13;;
35550;SDS011;21655;46.056;13.616;2023-06-26T02:27:51;13.20;;;9.27;;
35550;SDS011;21655;46.056;13.616;2023-06-26T02:30:17;12.80;;;9.70;;
35550;SDS011;21655;46.056;13.616;2023-06-26T02:32:43;15.05;;;10.13;;
35550;SDS011;21655;46.056;13.616;2023-06-26T02:35:08;16.00;;;9.75;;
35550;SDS011;21655;46.056;13.616;2023-06-26T02:37:34;15.15;;;9.82;;
35550;SDS011;21655;46.056;13.616;2023-06-26T02:39:59;13.10;;;9.43;;
35550;SDS011;21655;46.056;13.616;2023-06-26T02:42:24;15.18;;;10.43;;
35550;SDS011;21655;46.056;13.616;2023-06-26T02:44:50;15.05;;;9.65;;
35550;SDS011;21655;46.056;13.616;2023-06-26T02:47:15;13.10;;;8.93;;
35550;SDS011;21655;46.056;13.616;2023-06-26T02:49:41;17.25;;;9.82;;
35550;SDS011;21655;46.056;13.616;2023-06-26T02:52:06;13.98;;;9.52;;
35550;SDS011;21655;46.056;13.616;2023-06-26T02:54:31;13.38;;;9.20;;
35550;SDS011;21655;46.056;13.616;2023-06-26T02:56:57;13.45;;;9.65;;
35550;SDS011;21655;46.056;13.616;2023-06-26T02:59:24;15.10;;;9.40;;
35550;SDS011;21655;46.056;13.616;2023-06-26T03:01:49;16.00;;;9.95;;
35550;SDS011;21655;46.056;13.616;2023-06-26T03:04:15;13.15;;;9.63;;
35550;SDS011;21655;46.056;13.616;2023-06-26T03:06:42;15.13;;;9.60;;
35550;SDS011;21655;46.056;13.616;2023-06-26T03:09:08;15.43;;;9.85;;
35550;SDS011;21655;46.056;13.616;2023-06-26T03:11:33;15.15;;;9.25;;
35550;SDS011;21655;46.056;13.616;2023-06-26T03:13:59;13.60;;;9.35;;
35550;SDS011;21655;46.056;13.616;2023-06-26T03:16:24;13.13;;;9.45;;
35550;SDS011;21655;46.056;13.616;2023-06-26T03:18:49;12.77;;;9.32;;
35550;SDS011;21655;46.056;13.616;2023-06-26T03:21:15;13.27;;;9.50;;
35550;SDS011;21655;46.056;13.616;2023-06-26T03:23:40;12.73;;;8.82;;
35550;SDS011;21655;46.056;13.616;2023-06-26T03:26:06;13.93;;;9.60;;
35550;SDS011;21655;46.056;13.616;2023-06-26T03:28:31;13.93;;;9.15;;
35550;SDS011;21655;46.056;13.616;2023-06-26T03:30:57;15.80;;;9.88;;
35550;SDS011;21655;46.056;13.616;2023-06-26T03:33:22;14.65;;;9.38;;
35550;SDS011;21655;46.056;13.616;2023-06-26T03:35:47;16.23;;;10.25;;
35550;SDS011;21655;46.056;13.616;2023-06-26T03:38:13;14.20;;;9.20;;
35550;SDS011;21655;46.056;13.616;2023-06-26T03:40:38;19.02;;;9.80;;
35550;SDS011;21655;46.056;13.616;2023-06-26T03:43:04;18.10;;;9.88;;
35550;SDS011;21655;46.056;13.616;2023-06-26T03:45:29;12.85;;;8.95;;
35550;SDS011;21655;46.056;13.616;2023-06-26T03:47:54;20.08;;;9.65;;
35550;SDS011;21655;46.056;13.616;2023-06-26T03:50:20;14.30;;;9.68;;
35550;SDS011;21655;46.056;13.616;2023-06-26T03:52:45;17.90;;;10.05;;
35550;SDS011;21655;46.056;13.616;2023-06-26T03:55:11;12.70;;;9.57;;
35550;SDS011;21655;46.056;13.616;2023-06-26T03:57:37;12.20;;;8.52;;
35550;SDS011;21655;46.056;13.616;2023-06-26T04:00:02;12.82;;;9.32;;
35550;SDS011;21655;46.056;13.616;2023-06-26T04:02:33;13.77;;;8.82;;
35550;SDS011;21655;46.056;13.616;2023-06-26T04:04:59;14.18;;;8.88;;
35550;SDS011;21655;46.056;13.616;2023-06-26T04:07:25;13.57;;;9.13;;
35550;SDS011;21655;46.056;13.616;2023-06-26T04:09:51;15.18;;;8.77;;
35550;SDS011;21655;46.056;13.616;2023-06-26T04:12:16;14.30;;;9.88;;
35550;SDS011;21655;46.056;13.616;2023-06-26T04:14:42;11.93;;;8.93;;
35550;SDS011;21655;46.056;13.616;2023-06-26T04:17:07;12.95;;;9.80;;
35550;SDS011;21655;46.056;13.616;2023-06-26T04:19:32;13.45;;;9.77;;
35550;SDS011;21655;46.056;13.616;2023-06-26T04:21:58;11.68;;;8.77;;
35550;SDS011;21655;46.056;13.616;2023-06-26T04:24:24;12.10;;;8.80;;
35550;SDS011;21655;46.056;13.616;2023-06-26T04:26:50;14.45;;;8.60;;
35550;SDS011;21655;46.056;13.616;2023-06-26T04:29:15;12.70;;;9.43;;
35550;SDS011;21655;46.056;13.616;2023-06-26T04:31:41;14.38;;;9.27;;
35550;SDS011;21655;46.056;13.616;2023-06-26T04:34:06;14.82;;;9.20;;
35550;SDS011;21655;46.056;13.616;2023-06-26T04:36:31;16.33;;;9.73;;
35550;SDS011;21655;46.056;13.616;2023-06-26T04:38:58;13.98;;;8.70;;
35550;SDS011;21655;46.056;13.616;2023-06-26T04:41:24;13.75;;;8.95;;
35550;SDS011;21655;46.056;13.616;2023-06-26T04:43:49;14.65;;;7.78;;
35550;SDS011;21655;46.056;13.616;2023-06-26T04:46:15;14.73;;;9.30;;
35550;SDS011;21655;46.056;13.616;2023-06-26T04:48:40;12.35;;;8.90;;
35550;SDS011;21655;46.056;13.616;2023-06-26T04:51:06;11.52;;;8.43;;
35550;SDS011;21655;46.056;13.616;2023-06-26T04:53:31;13.07;;;8.70;;
35550;SDS011;21655;46.056;13.616;2023-06-26T04:55:57;11.77;;;8.63;;
35550;SDS011;21655;46.056;13.616;2023-06-26T04:58:22;18.08;;;8.13;;
35550;SDS011;21655;46.056;13.616;2023-06-26T05:00:48;14.18;;;8.10;;
35550;SDS011;21655;46.056;13.616;2023-06-26T05:03:15;11.52;;;7.97;;
35550;SDS011;21655;46.056;13.616;2023-06-26T05:05:42;11.52;;;8.00;;
35550;SDS011;21655;46.056;13.616;2023-06-26T05:10:40;13.98;;;8.45;;
35550;SDS011;21655;46.056;13.616;2023-06-26T05:13:05;12.77;;;7.80;;
35550;SDS011;21655;46.056;13.616;2023-06-26T05:15:31;13.80;;;8.00;;
35550;SDS011;21655;46.056;13.616;2023-06-26T05:17:56;13.55;;;7.35;;
35550;SDS011;21655;46.056;13.616;2023-06-26T05:20:22;11.10;;;7.72;;
35550;SDS011;21655;46.056;13.616;2023-06-26T05:22:47;14.15;;;7.97;;
35550;SDS011;21655;46.056;13.616;2023-06-26T05:25:13;15.40;;;7.90;;
35550;SDS011;21655;46.056;13.616;2023-06-26T05:27:39;10.55;;;7.60;;
35550;SDS011;21655;46.056;13.616;2023-06-26T05:30:05;12.20;;;8.07;;
35550;SDS011;21655;46.056;13.616;2023-06-26T05:32:31;11.43;;;7.90;;
35550;SDS011;21655;46.056;13.616;2023-06-26T05:34:59;13.00;;;7.95;;
35550;SDS011;21655;46.056;13.616;2023-06-26T05:37:27;12.85;;;7.55;;
35550;SDS011;21655;46.056;13.616;2023-06-26T05:39:54;11.38;;;7.85;;
35550;SDS011;21655;46.056;13.616;2023-06-26T05:42:19;18.92;;;7.97;;
35550;SDS011;21655;46.056;13.616;2023-06-26T05:44:45;11.30;;;7.85;;
35550;SDS011;21655;46.056;13.616;2023-06-26T05:47:10;11.43;;;7.72;;
35550;SDS011;21655;46.056;13.616;2023-06-26T05:49:36;12.45;;;7.35;;
35550;SDS011;21655;46.056;13.616;2023-06-26T05:52:01;13.82;;;7.93;;
35550;SDS011;21655;46.056;13.616;2023-06-26T05:54:27;14.85;;;8.10;;
35550;SDS011;21655;46.056;13.616;2023-06-26T05:56:54;11.77;;;8.18;;
35550;SDS011;21655;46.056;13.616;2023-06-26T05:59:24;14.25;;;7.50;;
35550;SDS011;21655;46.056;13.616;2023-06-26T06:01:49;12.88;;;7.57;;
35550;SDS011;21655;46.056;13.616;2023-06-26T06:04:15;10.27;;;7.53;;
35550;SDS011;21655;46.056;13.616;2023-06-26T06:06:40;12.32;;;8.10;;
35550;SDS011;21655;46.056;13.616;2023-06-26T06:09:05;10.82;;;7.63;;
35550;SDS011;21655;46.056;13.616;2023-06-26T06:11:31;13.35;;;7.50;;
35550;SDS011;21655;46.056;13.616;2023-06-26T06:13:57;16.48;;;7.65;;
35550;SDS011;21655;46.056;13.616;2023-06-26T06:16:24;15.60;;;7.47;;
35550;SDS011;21655;46.056;13.616;2023-06-26T06:18:49;10.65;;;7.32;;
35550;SDS011;21655;46.056;13.616;2023-06-26T06:21:14;10.95;;;7.28;;
35550;SDS011;21655;46.056;13.616;2023-06-26T06:23:40;9.77;;;7.57;;
35550;SDS011;21655;46.056;13.616;2023-06-26T06:26:05;12.90;;;7.75;;
35550;SDS011;21655;46.056;13.616;2023-06-26T06:28:30;11.32;;;7.82;;
35550;SDS011;21655;46.056;13.616;2023-06-26T06:30:56;15.07;;;7.10;;
35550;SDS011;21655;46.056;13.616;2023-06-26T06:33:21;8.73;;;6.75;;
35550;SDS011;21655;46.056;13.616;2023-06-26T06:35:47;13.93;;;7.25;;
35550;SDS011;21655;46.056;13.616;2023-06-26T06:38:12;10.15;;;7.30;;
35550;SDS011;21655;46.056;13.616;2023-06-26T06:40:37;12.98;;;7.32;;
35550;SDS011;21655;46.056;13.616;2023-06-26T06:43:03;9.90;;;7.13;;
35550;SDS011;21655;46.056;13.616;2023-06-26T06:45:29;9.43;;;7.07;;
35550;SDS011;21655;46.056;13.616;2023-06-26T06:47:54;12.65;;;7.25;;
35550;SDS011;21655;46.056;13.616;2023-06-26T06:50:19;9.68;;;7.68;;
35550;SDS011;21655;46.056;13.616;2023-06-26T06:52:45;12.27;;;7.03;;
35550;SDS011;21655;46.056;13.616;2023-06-26T06:55:10;11.05;;;7.65;;
35550;SDS011;21655;46.056;13.616;2023-06-26T06:57:36;14.07;;;7.78;;
35550;SDS011;21655;46.056;13.616;2023-06-26T07:00:07;16.05;;;7.60;;
35550;SDS011;21655;46.056;13.616;2023-06-26T07:02:35;13.57;;;7.28;;
35550;SDS011;21655;46.056;13.616;2023-06-26T07:05:01;19.73;;;7.88;;
35550;SDS011;21655;46.056;13.616;2023-06-26T07:07:29;16.42;;;7.50;;
35550;SDS011;21655;46.056;13.616;2023-06-26T07:09:57;13.95;;;7.45;;
35550;SDS011;21655;46.056;13.616;2023-06-26T07:12:24;10.88;;;7.50;;
35550;SDS011;21655;46.056;13.616;2023-06-26T07:14:49;8.57;;;6.90;;
35550;SDS011;21655;46.056;13.616;2023-06-26T07:17:14;16.45;;;7.60;;
35550;SDS011;21655;46.056;13.616;2023-06-26T07:19:40;14.68;;;7.50;;
35550;SDS011;21655;46.056;13.616;2023-06-26T07:22:05;17.98;;;7.55;;
35550;SDS011;21655;46.056;13.616;2023-06-26T07:24:31;13.38;;;7.63;;
35550;SDS011;21655;46.056;13.616;2023-06-26T07:26:57;13.30;;;7.15;;
35550;SDS011;21655;46.056;13.616;2023-06-26T07:29:23;11.93;;;7.15;;
35550;SDS011;21655;46.056;13.616;2023-06-26T07:31:48;16.55;;;7.65;;
35550;SDS011;21655;46.056;13.616;2023-06-26T07:34:14;14.45;;;7.18;;
35550;SDS011;21655;46.056;13.616;2023-06-26T07:36:39;10.48;;;7.22;;
35550;SDS011;21655;46.056;13.616;2023-06-26T07:39:04;10.07;;;6.78;;
35550;SDS011;21655;46.056;13.616;2023-06-26T07:41:30;14.27;;;7.65;;
35550;SDS011;21655;46.056;13.616;2023-06-26T07:43:56;13.38;;;6.85;;
35550;SDS011;21655;46.056;13.616;2023-06-26T07:46:23;16.23;;;6.93;;
35550;SDS011;21655;46.056;13.616;2023-06-26T07:48:49;9.05;;;7.07;;
35550;SDS011;21655;46.056;13.616;2023-06-26T07:51:14;15.40;;;6.60;;
35550;SDS011;21655;46.056;13.616;2023-06-26T07:53:39;10.02;;;7.07;;
35550;SDS011;21655;46.056;13.616;2023-06-26T07:56:05;13.70;;;7.70;;
35550;SDS011;21655;46.056;13.616;2023-06-26T07:58:30;17.45;;;7.43;;
35550;SDS011;21655;46.056;13.616;2023-06-26T08:00:56;20.33;;;7.50;;
35550;SDS011;21655;46.056;13.616;2023-06-26T08:03:21;26.85;;;7.78;;
35550;SDS011;21655;46.056;13.616;2023-06-26T08:05:46;17.17;;;7.47;;
35550;SDS011;21655;46.056;13.616;2023-06-26T08:08:12;15.43;;;7.00;;
35550;SDS011;21655;46.056;13.616;2023-06-26T08:10:37;11.25;;;7.07;;
35550;SDS011;21655;46.056;13.616;2023-06-26T08:13:03;12.70;;;7.72;;
35550;SDS011;21655;46.056;13.616;2023-06-26T08:15:28;17.27;;;7.32;;
35550;SDS011;21655;46.056;13.616;2023-06-26T08:17:54;10.57;;;7.13;;
35550;SDS011;21655;46.056;13.616;2023-06-26T08:20:19;12.25;;;7.40;;
35550;SDS011;21655;46.056;13.616;2023-06-26T08:22:45;12.75;;;7.45;;
35550;SDS011;21655;46.056;13.616;2023-06-26T08:25:13;28.30;;;8.30;;
35550;SDS011;21655;46.056;13.616;2023-06-26T08:27:38;21.88;;;7.35;;
35550;SDS011;21655;46.056;13.616;2023-06-26T08:30:04;16.40;;;7.15;;
35550;SDS011;21655;46.056;13.616;2023-06-26T08:32:30;13.38;;;7.00;;
35550;SDS011;21655;46.056;13.616;2023-06-26T08:34:55;10.32;;;7.40;;
35550;SDS011;21655;46.056;13.616;2023-06-26T08:37:21;12.88;;;7.47;;
35550;SDS011;21655;46.056;13.616;2023-06-26T08:39:46;14.43;;;7.30;;
35550;SDS011;21655;46.056;13.616;2023-06-26T08:42:12;11.10;;;7.03;;
35550;SDS011;21655;46.056;13.616;2023-06-26T08:44:38;10.18;;;7.18;;
35550;SDS011;21655;46.056;13.616;2023-06-26T08:47:04;8.48;;;6.68;;
35550;SDS011;21655;46.056;13.616;2023-06-26T08:49:34;14.82;;;7.43;;
35550;SDS011;21655;46.056;13.616;2023-06-26T08:52:10;11.98;;;7.00;;
35550;SDS011;21655;46.056;13.616;2023-06-26T08:54:50;12.57;;;7.85;;
35550;SDS011;21655;46.056;13.616;2023-06-26T08:57:20;47.97;;;14.38;;
35550;SDS011;21655;46.056;13.616;2023-06-26T08:59:47;9.07;;;7.30;;
35550;SDS011;21655;46.056;13.616;2023-06-26T09:02:13;12.50;;;7.75;;
35550;SDS011;21655;46.056;13.616;2023-06-26T09:04:39;12.77;;;7.97;;
35550;SDS011;21655;46.056;13.616;2023-06-26T09:07:05;12.25;;;7.25;;
35550;SDS011;21655;46.056;13.616;2023-06-26T09:09:31;18.02;;;8.43;;
35550;SDS011;21655;46.056;13.616;2023-06-26T09:11:57;10.30;;;7.22;;
35550;SDS011;21655;46.056;13.616;2023-06-26T09:14:23;11.25;;;7.13;;
35550;SDS011;21655;46.056;13.616;2023-06-26T09:16:49;12.30;;;6.80;;
35550;SDS011;21655;46.056;13.616;2023-06-26T09:19:15;13.82;;;6.72;;
35550;SDS011;21655;46.056;13.616;2023-06-26T09:21:41;11.07;;;6.45;;
35550;SDS011;21655;46.056;13.616;2023-06-26T09:24:07;8.23;;;6.63;;
35550;SDS011;21655;46.056;13.616;2023-06-26T09:26:37;7.93;;;6.05;;
35550;SDS011;21655;46.056;13.616;2023-06-26T09:29:04;10.63;;;6.47;;
35550;SDS011;21655;46.056;13.616;2023-06-26T09:31:30;7.57;;;6.28;;
35550;SDS011;21655;46.056;13.616;2023-06-26T09:34:00;9.27;;;6.88;;
35550;SDS011;21655;46.056;13.616;2023-06-26T09:36:27;7.68;;;6.50;;
35550;SDS011;21655;46.056;13.616;2023-06-26T09:38:54;7.75;;;6.28;;
35550;SDS011;21655;46.056;13.616;2023-06-26T09:41:20;11.38;;;6.40;;
35550;SDS011;21655;46.056;13.616;2023-06-26T09:43:49;9.65;;;6.75;;
35550;SDS011;21655;46.056;13.616;2023-06-26T09:46:25;7.82;;;6.30;;
35550;SDS011;21655;46.056;13.616;2023-06-26T09:49:01;10.43;;;6.90;;
35550;SDS011;21655;46.056;13.616;2023-06-26T09:51:29;7.32;;;6.38;;
35550;SDS011;21655;46.056;13.616;2023-06-26T09:53:57;10.05;;;6.78;;
35550;SDS011;21655;46.056;13.616;2023-06-26T09:56:23;8.70;;;6.53;;
35550;SDS011;21655;46.056;13.616;2023-06-26T09:58:49;9.70;;;6.88;;
35550;SDS011;21655;46.056;13.616;2023-06-26T10:01:15;8.98;;;6.80;;
35550;SDS011;21655;46.056;13.616;2023-06-26T10:03:40;9.95;;;7.13;;
35550;SDS011;21655;46.056;13.616;2023-06-26T10:06:06;7.95;;;6.25;;
35550;SDS011;21655;46.056;13.616;2023-06-26T10:08:34;8.35;;;6.70;;
35550;SDS011;21655;46.056;13.616;2023-06-26T10:11:02;8.43;;;6.63;;
35550;SDS011;21655;46.056;13.616;2023-06-26T10:13:30;7.68;;;6.57;;
35550;SDS011;21655;46.056;13.616;2023-06-26T10:15:59;8.35;;;6.68;;
35550;SDS011;21655;46.056;13.616;2023-06-26T10:18:26;8.48;;;6.40;;
35550;SDS011;21655;46.056;13.616;2023-06-26T10:20:55;8.23;;;6.78;;
35550;SDS011;21655;46.056;13.616;2023-06-26T10:23:22;8.82;;;7.05;;
35550;SDS011;21655;46.056;13.616;2023-06-26T10:25:51;9.63;;;7.45;;
35550;SDS011;21655;46.056;13.616;2023-06-26T10:28:17;9.65;;;7.10;;
35550;SDS011;21655;46.056;13.616;2023-06-26T10:30:45;10.70;;;7.25;;
35550;SDS011;21655;46.056;13.616;2023-06-26T10:33:13;8.40;;;6.95;;
35550;SDS011;21655;46.056;13.616;2023-06-26T10:35:44;10.27;;;8.02;;
35550;SDS011;21655;46.056;13.616;2023-06-26T10:38:10;12.25;;;7.50;;
35550;SDS011;21655;46.056;13.616;2023-06-26T10:40:40;8.52;;;7.22;;
35550;SDS011;21655;46.056;13.616;2023-06-26T10:43:10;9.02;;;7.50;;
35550;SDS011;21655;46.056;13.616;2023-06-26T10:45:43;10.07;;;7.60;;
35550;SDS011;21655;46.056;13.616;2023-06-26T10:48:17;9.90;;;7.65;;
35550;SDS011;21655;46.056;13.616;2023-06-26T10:50:42;12.30;;;7.95;;
35550;SDS011;21655;46.056;13.616;2023-06-26T10:53:14;11.38;;;7.72;;
35550;SDS011;21655;46.056;13.616;2023-06-26T10:58:28;11.10;;;7.22;;
35550;SDS011;21655;46.056;13.616;2023-06-26T11:03:39;9.70;;;7.30;;
35550;SDS011;21655;46.056;13.616;2023-06-26T11:06:09;12.25;;;8.10;;
35550;SDS011;21655;46.056;13.616;2023-06-26T11:08:45;9.93;;;7.45;;
35550;SDS011;21655;46.056;13.616;2023-06-26T11:11:18;8.70;;;7.18;;
35550;SDS011;21655;46.056;13.616;2023-06-26T11:13:45;9.63;;;7.70;;
35550;SDS011;21655;46.056;13.616;2023-06-26T11:16:11;10.93;;;7.18;;
35550;SDS011;21655;46.056;13.616;2023-06-26T11:18:38;10.77;;;7.63;;
35550;SDS011;21655;46.056;13.616;2023-06-26T11:21:07;9.95;;;7.40;;
35550;SDS011;21655;46.056;13.616;2023-06-26T11:23:34;8.25;;;6.88;;
35550;SDS011;21655;46.056;13.616;2023-06-26T11:26:18;9.60;;;7.25;;
35550;SDS011;21655;46.056;13.616;2023-06-26T11:28:48;10.10;;;7.95;;
35550;SDS011;21655;46.056;13.616;2023-06-26T11:34:09;10.88;;;7.78;;
35550;SDS011;21655;46.056;13.616;2023-06-26T11:36:36;10.80;;;7.40;;
35550;SDS011;21655;46.056;13.616;2023-06-26T11:39:04;11.30;;;7.30;;
35550;SDS011;21655;46.056;13.616;2023-06-26T11:41:34;9.50;;;7.93;;
35550;SDS011;21655;46.056;13.616;2023-06-26T11:44:04;10.95;;;7.72;;
35550;SDS011;21655;46.056;13.616;2023-06-26T11:46:31;10.32;;;7.68;;
35550;SDS011;21655;46.056;13.616;2023-06-26T11:48:58;9.25;;;7.18;;
35550;SDS011;21655;46.056;13.616;2023-06-26T11:51:26;9.10;;;7.68;;
35550;SDS011;21655;46.056;13.616;2023-06-26T11:53:53;11.80;;;7.32;;
35550;SDS011;21655;46.056;13.616;2023-06-26T11:56:18;11.32;;;6.80;;
35550;SDS011;21655;46.056;13.616;2023-06-26T11:59:03;8.88;;;6.68;;
35550;SDS011;21655;46.056;13.616;2023-06-26T12:01:37;8.82;;;7.50;;
35550;SDS011;21655;46.056;13.616;2023-06-26T12:04:04;9.48;;;7.47;;
35550;SDS011;21655;46.056;13.616;2023-06-26T12:06:34;10.13;;;7.65;;
35550;SDS011;21655;46.056;13.616;2023-06-26T12:09:02;13.23;;;7.50;;
35550;SDS011;21655;46.056;13.616;2023-06-26T12:11:30;9.30;;;7.45;;
35550;SDS011;21655;46.056;13.616;2023-06-26T12:13:58;10.07;;;7.43;;
35550;SDS011;21655;46.056;13.616;2023-06-26T12:16:24;10.18;;;6.90;;
35550;SDS011;21655;46.056;13.616;2023-06-26T12:18:50;8.95;;;6.95;;
35550;SDS011;21655;46.056;13.616;2023-06-26T12:24:15;9.68;;;6.80;;
35550;SDS011;21655;46.056;13.616;2023-06-26T12:26:43;9.20;;;6.82;;
35550;SDS011;21655;46.056;13.616;2023-06-26T12:29:13;16.90;;;7.88;;
35550;SDS011;21655;46.056;13.616;2023-06-26T12:31:43;8.77;;;6.95;;
35550;SDS011;21655;46.056;13.616;2023-06-26T12:34:11;9.27;;;7.35;;
35550;SDS011;21655;46.056;13.616;2023-06-26T12:36:47;11.63;;;7.07;;
35550;SDS011;21655;46.056;13.616;2023-06-26T12:39:17;9.85;;;7.05;;
35550;SDS011;21655;46.056;13.616;2023-06-26T12:41:53;11.02;;;6.80;;
35550;SDS011;21655;46.056;13.616;2023-06-26T12:44:25;9.27;;;7.20;;
35550;SDS011;21655;46.056;13.616;2023-06-26T12:46:58;10.20;;;7.35;;
35550;SDS011;21655;46.056;13.616;2023-06-26T12:49:29;10.32;;;7.00;;
35550;SDS011;21655;46.056;13.616;2023-06-26T12:51:56;12.07;;;7.68;;
35550;SDS011;21655;46.056;13.616;2023-06-26T12:54:21;13.13;;;6.80;;
35550;SDS011;21655;46.056;13.616;2023-06-26T12:56:47;9.68;;;7.10;;
35550;SDS011;21655;46.056;13.616;2023-06-26T12:59:12;9.65;;;7.32;;
35550;SDS011;21655;46.056;13.616;2023-06-26T13:01:38;8.95;;;6.75;;
35550;SDS011;21655;46.056;13.616;2023-06-26T13:04:03;9.77;;;7.20;;
35550;SDS011;21655;46.056;13.616;2023-06-26T13:06:30;10.90;;;7.30;;
35550;SDS011;21655;46.056;13.616;2023-06-26T13:08:56;11.70;;;7.10;;
35550;SDS011;21655;46.056;13.616;2023-06-26T13:11:21;9.85;;;6.90;;
35550;SDS011;21655;46.056;13.616;2023-06-26T13:13:47;11.75;;;6.55;;
35550;SDS011;21655;46.056;13.616;2023-06-26T13:16:13;9.05;;;6.68;;
35550;SDS011;21655;46.056;13.616;2023-06-26T13:18:38;9.40;;;6.57;;
35550;SDS011;21655;46.056;13.616;2023-06-26T13:21:03;8.77;;;6.45;;
35550;SDS011;21655;46.056;13.616;2023-06-26T13:23:29;8.90;;;6.68;;
35550;SDS011;21655;46.056;13.616;2023-06-26T13:25:54;9.13;;;7.05;;
35550;SDS011;21655;46.056;13.616;2023-06-26T13:28:20;8.85;;;6.68;;
35550;SDS011;21655;46.056;13.616;2023-06-26T13:30:45;9.98;;;7.30;;
35550;SDS011;21655;46.056;13.616;2023-06-26T13:33:11;11.25;;;7.05;;
35550;SDS011;21655;46.056;13.616;2023-06-26T13:35:37;11.65;;;7.00;;
35550;SDS011;21655;46.056;13.616;2023-06-26T13:38:02;9.98;;;7.18;;
35550;SDS011;21655;46.056;13.616;2023-06-26T13:40:27;8.90;;;6.82;;
35550;SDS011;21655;46.056;13.616;2023-06-26T13:42:53;8.48;;;6.25;;
35550;SDS011;21655;46.056;13.616;2023-06-26T13:45:19;11.20;;;7.55;;
35550;SDS011;21655;46.056;13.616;2023-06-26T13:47:44;10.52;;;7.57;;
35550;SDS011;21655;46.056;13.616;2023-06-26T13:50:09;9.30;;;7.20;;
35550;SDS011;21655;46.056;13.616;2023-06-26T13:52:35;14.25;;;7.10;;
35550;SDS011;21655;46.056;13.616;2023-06-26T13:55:01;10.82;;;7.22;;
35550;SDS011;21655;46.056;13.616;2023-06-26T13:57:29;12.23;;;7.18;;
35550;SDS011;21655;46.056;13.616;2023-06-26T13:59:55;9.98;;;7.50;;
35550;SDS011;21655;46.056;13.616;2023-06-26T14:02:21;10.45;;;7.40;;
35550;SDS011;21655;46.056;13.616;2023-06-26T14:04:47;10.20;;;6.97;;
35550;SDS011;21655;46.056;13.616;2023-06-26T14:07:12;10.70;;;6.60;;
35550;SDS011;21655;46.056;13.616;2023-06-26T14:09:37;9.50;;;7.10;;
35550;SDS011;21655;46.056;13.616;2023-06-26T14:12:03;12.32;;;6.57;;
35550;SDS011;21655;46.056;13.616;2023-06-26T14:14:29;13.05;;;7.50;;
35550;SDS011;21655;46.056;13.616;2023-06-26T14:16:54;15.77;;;7.18;;
35550;SDS011;21655;46.056;13.616;2023-06-26T14:19:19;12.48;;;7.22;;
35550;SDS011;21655;46.056;13.616;2023-06-26T14:21:45;11.93;;;7.80;;
35550;SDS011;21655;46.056;13.616;2023-06-26T14:24:10;9.30;;;7.22;;
35550;SDS011;21655;46.056;13.616;2023-06-26T14:26:37;11.82;;;7.47;;
35550;SDS011;21655;46.056;13.616;2023-06-26T14:29:03;11.38;;;6.88;;
35550;SDS011;21655;46.056;13.616;2023-06-26T14:31:29;12.98;;;7.03;;
35550;SDS011;21655;46.056;13.616;2023-06-26T14:33:55;11.43;;;6.60;;
35550;SDS011;21655;46.056;13.616;2023-06-26T14:36:21;9.25;;;6.88;;
35550;SDS011;21655;46.056;13.616;2023-06-26T14:38:46;13.90;;;7.40;;
35550;SDS011;21655;46.056;13.616;2023-06-26T14:41:12;11.02;;;6.93;;